createdAt,value
2019-06-27T00:00:36.295Z,99.90
2019-06-27T00:05:40.038Z,99.90
2019-06-27T00:10:43.832Z,99.90
2019-06-27T00:15:47.552Z,99.90
2019-06-27T00:20:53.983Z,99.90
2019-06-27T00:25:57.875Z,99.90
2019-06-27T00:31:01.889Z,99.90
2019-06-27T00:36:05.736Z,99.90
2019-06-27T00:41:09.557Z,99.90
2019-06-27T00:46:13.511Z,99.90
2019-06-27T00:51:17.204Z,99.90
2019-06-27T00:56:20.903Z,99.90
2019-06-27T01:01:24.648Z,99.90
2019-06-27T01:06:28.479Z,99.90
2019-06-27T01:11:32.203Z,99.90
2019-06-27T01:16:36.059Z,99.90
2019-06-27T01:21:40.097Z,99.90
2019-06-27T01:26:43.895Z,99.90
2019-06-27T01:31:47.751Z,99.90
2019-06-27T01:36:51.467Z,99.90
2019-06-27T01:41:55.215Z,99.90
2019-06-27T01:46:59.430Z,99.90
2019-06-27T01:52:03.174Z,99.90
2019-06-27T01:57:06.993Z,99.90
2019-06-27T02:02:10.839Z,99.90
2019-06-27T02:07:14.861Z,99.90
2019-06-27T02:12:18.611Z,99.90
2019-06-27T02:17:23.099Z,99.90
2019-06-27T02:22:26.864Z,99.90
2019-06-27T02:27:30.670Z,99.90
2019-06-27T02:32:34.515Z,99.90
2019-06-27T02:37:38.352Z,99.90
2019-06-27T02:42:42.271Z,99.90
2019-06-27T02:47:46.097Z,99.90
2019-06-27T02:52:50.071Z,99.90
2019-06-27T02:57:53.884Z,99.90
2019-06-27T03:02:57.669Z,99.90
2019-06-27T03:08:01.459Z,99.90
2019-06-27T03:13:05.432Z,99.90
2019-06-27T03:18:09.223Z,99.90
2019-06-27T03:23:13.468Z,99.90
2019-06-27T03:28:17.479Z,99.90
2019-06-27T03:33:21.227Z,99.90
2019-06-27T03:38:25.051Z,99.90
2019-06-27T03:43:28.914Z,99.90
2019-06-27T03:48:32.657Z,99.90
2019-06-27T03:53:36.388Z,99.90
2019-06-27T03:58:40.190Z,99.90
2019-06-27T04:03:43.929Z,99.90
2019-06-27T04:08:47.908Z,99.90
2019-06-27T04:13:51.623Z,99.90
2019-06-27T04:18:55.366Z,99.90
2019-06-27T04:23:59.127Z,99.90
2019-06-27T04:29:03.426Z,99.90
2019-06-27T04:34:07.248Z,99.90
2019-06-27T04:39:11.844Z,99.90
2019-06-27T04:44:15.856Z,99.90
2019-06-27T04:49:19.587Z,99.90
2019-06-27T04:54:23.339Z,99.90
2019-06-27T04:59:27.205Z,99.90
2019-06-27T05:04:30.970Z,99.90
2019-06-27T05:09:34.954Z,99.90
2019-06-27T05:14:38.783Z,99.90
2019-06-27T05:19:42.614Z,99.90
2019-06-27T05:24:46.969Z,99.90
2019-06-27T05:29:50.783Z,99.90
2019-06-27T05:34:54.515Z,99.90
2019-06-27T05:39:58.318Z,99.90
2019-06-27T05:45:02.357Z,99.90
2019-06-27T05:50:06.707Z,99.90
2019-06-27T05:55:10.912Z,99.90
2019-06-27T06:00:27.730Z,99.90
2019-06-27T06:05:20.499Z,99.90
2019-06-27T06:10:24.231Z,99.90
2019-06-27T06:15:28.122Z,99.90
2019-06-27T06:20:31.934Z,99.90
2019-06-27T06:25:35.663Z,99.90
2019-06-27T06:30:44.589Z,99.90
2019-06-27T06:35:44.875Z,99.90
2019-06-27T06:40:48.702Z,99.90
2019-06-27T06:45:52.459Z,99.90
2019-06-27T06:50:56.569Z,99.90
2019-06-27T06:56:00.566Z,99.90
2019-06-27T07:01:04.371Z,99.90
2019-06-27T07:06:08.404Z,99.90
2019-06-27T07:11:12.255Z,99.90
2019-06-27T07:16:16.087Z,99.90
2019-06-27T07:21:19.851Z,99.70
2019-06-27T07:26:23.604Z,99.40
2019-06-27T07:31:27.668Z,97.90
2019-06-27T07:36:31.552Z,98.50
2019-06-27T07:41:35.384Z,98.30
2019-06-27T07:46:39.415Z,97.00
2019-06-27T07:51:43.286Z,96.60
2019-06-27T07:56:47.070Z,97.00
2019-06-27T08:01:50.799Z,95.70
2019-06-27T08:06:54.554Z,95.80
2019-06-27T08:11:58.902Z,94.60
2019-06-27T08:17:02.821Z,95.10
2019-06-27T08:22:06.616Z,94.70
2019-06-27T08:27:10.372Z,94.70
2019-06-27T08:32:14.106Z,94.60
2019-06-27T08:37:18.243Z,93.30
2019-06-27T08:42:22.067Z,93.90
2019-06-27T08:47:25.813Z,94.30
2019-06-27T08:52:29.924Z,93.20
2019-06-27T08:57:34.116Z,94.80
2019-06-27T09:02:37.854Z,93.50
2019-06-27T09:07:41.819Z,91.90
2019-06-27T09:12:46.218Z,93.00
2019-06-27T09:17:50.182Z,92.70
2019-06-27T09:22:54.203Z,93.90
2019-06-27T09:27:57.948Z,91.70
2019-06-27T09:33:01.875Z,94.60
2019-06-27T09:38:06.091Z,91.70
2019-06-27T09:43:10.215Z,89.50
2019-06-27T09:48:14.209Z,90.30
2019-06-27T09:53:18.127Z,90.50
2019-06-27T09:58:21.992Z,89.80
2019-06-27T10:03:25.854Z,91.40
2019-06-27T10:08:29.860Z,90.20
2019-06-27T10:13:35.881Z,88.00
2019-06-27T10:18:39.692Z,90.90
2019-06-27T10:23:43.563Z,88.40
2019-06-27T10:28:47.311Z,91.40
2019-06-27T10:33:51.463Z,88.90
2019-06-27T10:38:55.247Z,90.70
2019-06-27T10:43:59.099Z,90.60
2019-06-27T10:49:02.910Z,85.30
2019-06-27T10:54:06.891Z,86.50
2019-06-27T10:59:10.731Z,86.50
2019-06-27T11:04:14.780Z,85.30
2019-06-27T11:09:18.870Z,86.50
2019-06-27T11:14:22.738Z,86.50
2019-06-27T11:19:29.752Z,85.50
2019-06-27T11:24:33.578Z,81.80
2019-06-27T11:29:37.407Z,82.20
2019-06-27T11:34:41.183Z,86.30
2019-06-27T11:39:44.952Z,85.40
2019-06-27T11:44:48.891Z,85.10
2019-06-27T11:49:52.965Z,83.80
2019-06-27T11:54:56.881Z,81.50
2019-06-27T12:00:00.698Z,79.70
2019-06-27T12:05:07.082Z,80.20
2019-06-27T12:10:12.636Z,81.50
2019-06-27T12:15:16.586Z,79.50
2019-06-27T12:20:20.401Z,83.20
2019-06-27T12:25:24.180Z,79.00
2019-06-27T12:30:28.087Z,81.50
2019-06-27T12:35:32.044Z,77.00
2019-06-27T12:40:35.910Z,81.70
2019-06-27T12:45:39.748Z,76.00
2019-06-27T12:50:43.491Z,78.00
2019-06-27T12:55:47.787Z,76.70
2019-06-27T13:00:51.896Z,79.70
2019-06-27T13:05:55.627Z,78.20
2019-06-27T13:11:00.499Z,75.50
2019-06-27T13:16:04.744Z,83.10
2019-06-27T13:21:08.747Z,78.80
2019-06-27T13:26:13.810Z,79.40
2019-06-27T13:31:18.056Z,77.10
2019-06-27T13:36:22.243Z,78.20
2019-06-27T13:41:26.876Z,78.10
2019-06-27T13:46:31.044Z,77.80
2019-06-27T13:51:34.847Z,77.70
2019-06-27T13:56:38.957Z,76.70
2019-06-27T14:01:42.889Z,75.70
2019-06-27T14:06:46.708Z,76.20
2019-06-27T14:11:50.734Z,81.80
2019-06-27T14:16:54.597Z,77.60
2019-06-27T14:21:59.021Z,77.60
2019-06-27T14:27:04.669Z,79.10
2019-06-27T14:32:08.772Z,79.00
2019-06-27T14:37:12.694Z,76.00
2019-06-27T14:42:16.471Z,76.60
2019-06-27T14:47:21.732Z,77.70
2019-06-27T14:52:25.901Z,75.40
2019-06-27T14:57:29.747Z,77.90
2019-06-27T15:02:33.680Z,77.70
2019-06-27T15:07:37.584Z,81.10
2019-06-27T15:12:55.852Z,79.80
2019-06-27T15:17:48.084Z,78.10
2019-06-27T15:22:52.053Z,80.00
2019-06-27T15:27:55.834Z,75.50
2019-06-27T15:33:00.260Z,78.10
2019-06-27T15:38:04.048Z,78.50
2019-06-27T15:43:09.200Z,79.90
2019-06-27T15:48:12.947Z,83.10
2019-06-27T15:53:17.125Z,83.60
2019-06-27T15:58:20.918Z,81.00
2019-06-27T16:03:24.836Z,84.60
2019-06-27T16:08:29.927Z,80.40
2019-06-27T16:13:33.902Z,82.80
2019-06-27T16:18:40.818Z,82.00
2019-06-27T16:23:43.252Z,84.80
2019-06-27T16:28:47.040Z,86.70
2019-06-27T16:33:51.030Z,85.40
2019-06-27T16:38:54.868Z,87.10
2019-06-27T16:43:59.291Z,87.50
2019-06-27T16:49:03.426Z,87.60
2019-06-27T16:54:07.220Z,87.70
2019-06-27T16:59:10.943Z,86.80
2019-06-27T17:04:14.784Z,87.10
2019-06-27T17:09:18.507Z,89.00
2019-06-27T17:14:22.550Z,88.70
2019-06-27T17:19:26.368Z,89.80
2019-06-27T17:24:30.095Z,88.80
2019-06-27T17:29:34.175Z,91.20
2019-06-27T17:34:37.975Z,90.00
2019-06-27T17:39:41.729Z,91.10
2019-06-27T17:44:45.682Z,90.70
2019-06-27T17:49:49.563Z,91.60
2019-06-27T17:54:53.335Z,91.30
2019-06-27T17:59:57.099Z,91.20
2019-06-27T18:05:02.323Z,91.40
2019-06-27T18:10:07.257Z,92.70
2019-06-27T18:15:11.446Z,92.90
2019-06-27T18:20:15.875Z,93.00
2019-06-27T18:25:19.722Z,93.10
2019-06-27T18:30:24.767Z,94.10
2019-06-27T18:35:28.960Z,93.90
2019-06-27T18:40:32.726Z,93.10
2019-06-27T18:45:36.495Z,93.80
2019-06-27T18:50:40.311Z,93.00
2019-06-27T18:55:44.427Z,92.90
2019-06-27T19:00:50.244Z,93.90
2019-06-27T19:06:06.585Z,94.50
2019-06-27T19:11:23.306Z,94.30
2019-06-27T19:16:33.525Z,94.50
2019-06-27T19:21:59.153Z,95.50
2019-06-27T19:27:03.571Z,96.40
2019-06-27T19:32:09.207Z,96.90
2019-06-27T19:37:13.393Z,98.20
2019-06-27T19:42:17.255Z,98.50
2019-06-27T19:47:21.344Z,99.30
2019-06-27T19:52:25.183Z,99.90
2019-06-27T19:57:29.113Z,99.90
2019-06-27T20:02:32.925Z,99.90
2019-06-27T20:07:36.828Z,99.90
2019-06-27T20:12:40.618Z,99.90
2019-06-27T20:17:44.412Z,99.90
2019-06-27T20:22:48.242Z,99.90
2019-06-27T20:27:52.188Z,99.90
2019-06-27T20:32:56.360Z,99.90
2019-06-27T20:38:00.367Z,99.90
2019-06-27T20:43:06.159Z,99.90
2019-06-27T20:48:10.006Z,99.90
2019-06-27T20:53:13.769Z,99.90
2019-06-27T20:58:17.584Z,99.90
2019-06-27T21:03:21.632Z,99.90
2019-06-27T21:08:25.344Z,99.90
2019-06-27T21:13:29.095Z,99.90
2019-06-27T21:18:33.207Z,99.90
2019-06-27T21:23:37.383Z,99.90
2019-06-27T21:28:41.242Z,99.90
2019-06-27T21:33:45.099Z,99.90
2019-06-27T21:38:48.864Z,99.90
2019-06-27T21:43:52.664Z,99.90
2019-06-27T21:48:56.750Z,99.90
2019-06-27T21:54:00.514Z,99.90
2019-06-27T21:59:04.600Z,99.90
2019-06-27T22:04:08.669Z,99.90
2019-06-27T22:09:23.983Z,99.90
2019-06-27T22:14:19.421Z,99.90
2019-06-27T22:19:23.140Z,99.90
2019-06-27T22:24:27.143Z,99.90
2019-06-27T22:29:30.869Z,99.90
2019-06-27T22:34:34.593Z,99.90
2019-06-27T22:39:56.162Z,99.90
2019-06-27T22:45:18.167Z,99.90
2019-06-27T22:50:35.053Z,99.90
2019-06-27T22:55:38.808Z,99.90
2019-06-27T23:00:42.596Z,99.90
2019-06-27T23:05:46.380Z,99.90
2019-06-27T23:10:50.144Z,99.90
2019-06-27T23:15:53.975Z,99.90
2019-06-27T23:20:57.706Z,99.90
2019-06-27T23:26:01.452Z,99.90
2019-06-27T23:31:05.267Z,99.90
2019-06-27T23:36:09.023Z,99.90
2019-06-27T23:41:12.891Z,99.90
2019-06-27T23:46:34.488Z,99.90
2019-06-27T23:51:38.234Z,99.90
2019-06-27T23:56:42.256Z,99.90
